Wetterdaten: aktuell Mittwoch, 28.02.2024 08:20
Datum Zeit Temp. Feuchte Luftdruck Regen Wind Richtung Richtung UV Solar Windben
28.02.2024 08:20 6.8 C 78 % 1020.5 hPa 0.0 mm 4.8 km/h (1 Bft) N 10 0.0 UV-I 30.0 W/m 14.5 km/h (3 Bft)
28.02.2024 08:10 6.8 C 78 % 1020.4 hPa 0.0 mm 5.7 km/h (1 Bft) NO 40 0.0 UV-I 19.0 W/m 19.3 km/h (3 Bft)
28.02.2024 08:00 6.7 C 78 % 1020.3 hPa 0.0 mm 7.1 km/h (2 Bft) N-NW 335 0.0 UV-I 14.0 W/m 22.5 km/h (4 Bft)
28.02.2024 07:50 6.7 C 78 % 1020.3 hPa 0.0 mm 6.6 km/h (2 Bft) NO 55 0.0 UV-I 11.0 W/m 19.3 km/h (3 Bft)
28.02.2024 07:40 6.7 C 78 % 1020.1 hPa 0.0 mm 7.3 km/h (2 Bft) NO 44 0.0 UV-I 7.0 W/m 20.9 km/h (4 Bft)
28.02.2024 07:30 6.7 C 78 % 1019.9 hPa 0.0 mm 7.2 km/h (2 Bft) NO 55 0.0 UV-I 0.0 W/m 20.9 km/h (4 Bft)
28.02.2024 07:20 6.8 C 78 % 1019.6 hPa 0.0 mm 8.4 km/h (2 Bft) NO 54 0.0 UV-I 0.0 W/m 24.1 km/h (4 Bft)
28.02.2024 07:10 6.8 C 78 % 1019.5 hPa 0.0 mm 8.8 km/h (2 Bft) O-NO 69 0.0 UV-I 0.0 W/m 27.4 km/h (4 Bft)
28.02.2024 07:00 6.9 C 78 % 1019.4 hPa 0.0 mm 7.9 km/h (2 Bft) O-NO 60 0.0 UV-I 0.0 W/m 22.5 km/h (4 Bft)
28.02.2024 06:50 7.1 C 78 % 1019.2 hPa 0.0 mm 4.2 km/h (1 Bft) NO 46 0.0 UV-I 0.0 W/m 14.5 km/h (3 Bft)
28.02.2024 06:40 7.1 C 78 % 1019.1 hPa 0.0 mm 10.8 km/h (2 Bft) NO 53 0.0 UV-I 0.0 W/m 19.3 km/h (3 Bft)
28.02.2024 06:30 7.2 C 78 % 1018.9 hPa 0.0 mm 8.6 km/h (2 Bft) O-NO 69 0.0 UV-I 0.0 W/m 24.1 km/h (4 Bft)
28.02.2024 06:20 7.2 C 79 % 1018.8 hPa 0.0 mm 6.8 km/h (2 Bft) O-NO 57 0.0 UV-I 0.0 W/m 16.1 km/h (3 Bft)
28.02.2024 06:10 7.3 C 80 % 1018.7 hPa 0.0 mm 5.1 km/h (1 Bft) NO 53 0.0 UV-I 0.0 W/m 16.1 km/h (3 Bft)
28.02.2024 06:00 7.3 C 80 % 1018.7 hPa 0.0 mm 6.1 km/h (2 Bft) N-NW 348 0.0 UV-I 0.0 W/m 17.7 km/h (3 Bft)
28.02.2024 05:50 7.3 C 80 % 1018.6 hPa 0.0 mm 6.4 km/h (2 Bft) NO 54 0.0 UV-I 0.0 W/m 11.3 km/h (2 Bft)
28.02.2024 05:40 7.4 C 80 % 1018.4 hPa 0.0 mm 5.2 km/h (1 Bft) O-NO 62 0.0 UV-I 0.0 W/m 12.9 km/h (3 Bft)
28.02.2024 05:30 7.4 C 80 % 1018.4 hPa 0.0 mm 5.3 km/h (1 Bft) NO 49 0.0 UV-I 0.0 W/m 19.3 km/h (3 Bft)
28.02.2024 05:20 7.4 C 80 % 1018.2 hPa 0.0 mm 5.1 km/h (1 Bft) NO 50 0.0 UV-I 0.0 W/m 14.5 km/h (3 Bft)
28.02.2024 05:10 7.4 C 80 % 1018.1 hPa 0.0 mm 4.6 km/h (1 Bft) N-NO 32 0.0 UV-I 0.0 W/m 12.9 km/h (3 Bft)
28.02.2024 05:00 7.4 C 80 % 1018.1 hPa 0.0 mm 4.6 km/h (1 Bft) N-NO 30 0.0 UV-I 0.0 W/m 12.9 km/h (3 Bft)
28.02.2024 04:50 7.4 C 81 % 1018.0 hPa 0.0 mm 3.4 km/h (1 Bft) O-NO 65 0.0 UV-I 0.0 W/m 11.3 km/h (2 Bft)
28.02.2024 04:40 7.4 C 81 % 1018.0 hPa 0.0 mm 4.4 km/h (1 Bft) O 82 0.0 UV-I 0.0 W/m 11.3 km/h (2 Bft)
28.02.2024 04:30 7.3 C 81 % 1017.9 hPa 0.0 mm 3.5 km/h (1 Bft) O-NO 58 0.0 UV-I 0.0 W/m 9.7 km/h (2 Bft)
28.02.2024 04:20 7.3 C 82 % 1017.7 hPa 0.0 mm 2.4 km/h (1 Bft) NO 55 0.0 UV-I 0.0 W/m 6.4 km/h (2 Bft)
28.02.2024 04:10 7.4 C 82 % 1017.4 hPa 0.0 mm 1.6 km/h (1 Bft) O 84 0.0 UV-I 0.0 W/m 6.4 km/h (2 Bft)
28.02.2024 04:00 7.4 C 82 % 1017.3 hPa 0.0 mm 4.8 km/h (1 Bft) O-NO 71 0.0 UV-I 0.0 W/m 14.5 km/h (3 Bft)
28.02.2024 03:50 7.4 C 82 % 1017.3 hPa 0.0 mm 7.3 km/h (2 Bft) O-NO 71 0.0 UV-I 0.0 W/m 14.5 km/h (3 Bft)
28.02.2024 03:40 7.4 C 82 % 1017.3 hPa 0.0 mm 4.9 km/h (1 Bft) O-NO 65 0.0 UV-I 0.0 W/m 11.3 km/h (2 Bft)
28.02.2024 03:30 7.4 C 82 % 1017.1 hPa 0.0 mm 4.6 km/h (1 Bft) N-NW 340 0.0 UV-I 0.0 W/m 9.7 km/h (2 Bft)
28.02.2024 03:20 7.4 C 82 % 1017.1 hPa 0.0 mm 3.3 km/h (1 Bft) O-NO 71 0.0 UV-I 0.0 W/m 8.0 km/h (2 Bft)
28.02.2024 03:10 7.5 C 82 % 1017.2 hPa 0.0 mm 4.9 km/h (1 Bft) O-NO 71 0.0 UV-I 0.0 W/m 9.7 km/h (2 Bft)
28.02.2024 03:00 7.5 C 82 % 1017.1 hPa 0.0 mm 3.3 km/h (1 Bft) O-NO 65 0.0 UV-I 0.0 W/m 8.0 km/h (2 Bft)
28.02.2024 02:50 7.6 C 82 % 1017.1 hPa 0.0 mm 3.0 km/h (1 Bft) N-NO 30 0.0 UV-I 0.0 W/m 9.7 km/h (2 Bft)
28.02.2024 02:40 7.6 C 81 % 1017.1 hPa 0.0 mm 3.4 km/h (1 Bft) NO 35 0.0 UV-I 0.0 W/m 9.7 km/h (2 Bft)
28.02.2024 02:30 7.6 C 81 % 1017.0 hPa 0.0 mm 4.5 km/h (1 Bft) O-NO 59 0.0 UV-I 0.0 W/m 12.9 km/h (3 Bft)
28.02.2024 02:20 7.6 C 81 % 1017.1 hPa 0.0 mm 4.0 km/h (1 Bft) N 360 0.0 UV-I 0.0 W/m 12.9 km/h (3 Bft)
28.02.2024 02:10 7.7 C 81 % 1017.0 hPa 0.0 mm 4.2 km/h (1 Bft) O-NO 67 0.0 UV-I 0.0 W/m 14.5 km/h (3 Bft)
28.02.2024 02:00 7.7 C 81 % 1017.0 hPa 0.0 mm 5.0 km/h (1 Bft) O 91 0.0 UV-I 0.0 W/m 12.9 km/h (3 Bft)
28.02.2024 01:50 7.7 C 81 % 1017.0 hPa 0.0 mm 2.7 km/h (1 Bft) O-NO 68 0.0 UV-I 0.0 W/m 8.0 km/h (2 Bft)
28.02.2024 01:40 7.7 C 81 % 1016.9 hPa 0.0 mm 4.4 km/h (1 Bft) NO 48 0.0 UV-I 0.0 W/m 11.3 km/h (2 Bft)
28.02.2024 01:30 7.6 C 82 % 1016.9 hPa 0.0 mm 2.8 km/h (1 Bft) N-NO 33 0.0 UV-I 0.0 W/m 6.4 km/h (2 Bft)
28.02.2024 01:20 7.6 C 82 % 1016.8 hPa 0.0 mm 2.0 km/h (1 Bft) NO 42 0.0 UV-I 0.0 W/m 4.8 km/h (1 Bft)
28.02.2024 01:10 7.7 C 81 % 1016.7 hPa 0.0 mm 2.8 km/h (1 Bft) O-NO 64 0.0 UV-I 0.0 W/m 4.8 km/h (1 Bft)
28.02.2024 01:00 7.7 C 81 % 1016.7 hPa 0.0 mm 3.4 km/h (1 Bft) O-NO 68 0.0 UV-I 0.0 W/m 8.0 km/h (2 Bft)
28.02.2024 00:50 7.7 C 81 % 1016.6 hPa 0.0 mm 3.3 km/h (1 Bft) O-NO 65 0.0 UV-I 0.0 W/m 6.4 km/h (2 Bft)
28.02.2024 00:40 7.7 C 81 % 1016.5 hPa 0.0 mm 4.0 km/h (1 Bft) O 79 0.0 UV-I 0.0 W/m 11.3 km/h (2 Bft)
28.02.2024 00:30 7.7 C 81 % 1016.4 hPa 0.0 mm 2.8 km/h (1 Bft) O-NO 74 0.0 UV-I 0.0 W/m 4.8 km/h (1 Bft)
28.02.2024 00:20 7.8 C 81 % 1016.4 hPa 0.0 mm 3.3 km/h (1 Bft) O-NO 74 0.0 UV-I 0.0 W/m 6.4 km/h (2 Bft)
28.02.2024 00:10 7.8 C 81 % 1016.4 hPa 0.0 mm 3.5 km/h (1 Bft) O-NO 70 0.0 UV-I 0.0 W/m 6.4 km/h (2 Bft)
28.02.2024 00:00 7.9 C 80 % 1016.3 hPa 0.0 mm 4.2 km/h (1 Bft) O-NO 66 0.0 UV-I 0.0 W/m 6.4 km/h (2 Bft)
27.02.2024 23:50 7.9 C 80 % 1016.3 hPa 0.0 mm 4.6 km/h (1 Bft) O-NO 78 0.0 UV-I 0.0 W/m 12.9 km/h (3 Bft)
27.02.2024 23:40 7.9 C 80 % 1016.2 hPa 0.0 mm 4.5 km/h (1 Bft) NO 52 0.0 UV-I 0.0 W/m 9.7 km/h (2 Bft)
27.02.2024 23:30 8.0 C 80 % 1016.1 hPa 0.0 mm 2.9 km/h (1 Bft) O-NO 66 0.0 UV-I 0.0 W/m 8.0 km/h (2 Bft)
27.02.2024 23:20 8.1 C 80 % 1016.0 hPa 0.0 mm 4.8 km/h (1 Bft) O-NO 65 0.0 UV-I 0.0 W/m 11.3 km/h (2 Bft)
27.02.2024 23:10 8.0 C 80 % 1016.0 hPa 0.0 mm 1.5 km/h (1 Bft) NO 42 0.0 UV-I 0.0 W/m 6.4 km/h (2 Bft)
27.02.2024 23:00 8.1 C 80 % 1016.0 hPa 0.0 mm 3.7 km/h (1 Bft) O 96 0.0 UV-I 0.0 W/m 9.7 km/h (2 Bft)
27.02.2024 22:50 8.1 C 79 % 1015.9 hPa 0.0 mm 2.7 km/h (1 Bft) NO 51 0.0 UV-I 0.0 W/m 11.3 km/h (2 Bft)
27.02.2024 22:40 8.1 C 79 % 1015.8 hPa 0.0 mm 4.1 km/h (1 Bft) NO 40 0.0 UV-I 0.0 W/m 11.3 km/h (2 Bft)
27.02.2024 22:30 8.1 C 80 % 1015.8 hPa 0.0 mm 3.7 km/h (1 Bft) O-NO 77 0.0 UV-I 0.0 W/m 12.9 km/h (3 Bft)
27.02.2024 22:20 8.2 C 79 % 1015.7 hPa 0.0 mm 3.8 km/h (1 Bft) N-NO 28 0.0 UV-I 0.0 W/m 9.7 km/h (2 Bft)
27.02.2024 22:10 8.2 C 79 % 1015.7 hPa 0.0 mm 4.0 km/h (1 Bft) O-NO 60 0.0 UV-I 0.0 W/m 9.7 km/h (2 Bft)
27.02.2024 22:00 8.2 C 79 % 1015.6 hPa 0.0 mm 5.4 km/h (1 Bft) NO 50 0.0 UV-I 0.0 W/m 16.1 km/h (3 Bft)
27.02.2024 21:50 8.2 C 79 % 1015.4 hPa 0.0 mm 5.1 km/h (1 Bft) O-NO 68 0.0 UV-I 0.0 W/m 16.1 km/h (3 Bft)
27.02.2024 21:40 8.2 C 79 % 1015.4 hPa 0.0 mm 4.0 km/h (1 Bft) O-NO 61 0.0 UV-I 0.0 W/m 9.7 km/h (2 Bft)
27.02.2024 21:30 8.2 C 79 % 1015.3 hPa 0.0 mm 2.7 km/h (1 Bft) NO 36 0.0 UV-I 0.0 W/m 9.7 km/h (2 Bft)
27.02.2024 21:20 8.3 C 79 % 1015.4 hPa 0.0 mm 5.9 km/h (2 Bft) O-NO 71 0.0 UV-I 0.0 W/m 14.5 km/h (3 Bft)
27.02.2024 21:10 8.3 C 78 % 1015.2 hPa 0.0 mm 5.1 km/h (1 Bft) O-NO 76 0.0 UV-I 0.0 W/m 9.7 km/h (2 Bft)
27.02.2024 21:00 8.4 C 78 % 1015.1 hPa 0.0 mm 4.8 km/h (1 Bft) O-NO 73 0.0 UV-I 0.0 W/m 9.7 km/h (2 Bft)
27.02.2024 20:50 8.4 C 78 % 1014.9 hPa 0.0 mm 5.5 km/h (1 Bft) O-NO 70 0.0 UV-I 0.0 W/m 12.9 km/h (3 Bft)
27.02.2024 20:40 8.5 C 78 % 1014.8 hPa 0.0 mm 5.4 km/h (1 Bft) O-NO 74 0.0 UV-I 0.0 W/m 14.5 km/h (3 Bft)
27.02.2024 20:30 8.5 C 78 % 1014.6 hPa 0.0 mm 5.1 km/h (1 Bft) O-NO 61 0.0 UV-I 0.0 W/m 12.9 km/h (3 Bft)
27.02.2024 20:20 8.6 C 77 % 1014.6 hPa 0.0 mm 4.1 km/h (1 Bft) O-NO 59 0.0 UV-I 0.0 W/m 12.9 km/h (3 Bft)
27.02.2024 20:10 8.6 C 77 % 1014.5 hPa 0.0 mm 4.7 km/h (1 Bft) O 89 0.0 UV-I 0.0 W/m 14.5 km/h (3 Bft)
27.02.2024 20:00 8.6 C 77 % 1014.4 hPa 0.0 mm 5.0 km/h (1 Bft) O-NO 70 0.0 UV-I 0.0 W/m 12.9 km/h (3 Bft)
27.02.2024 19:50 8.6 C 77 % 1014.4 hPa 0.0 mm 3.7 km/h (1 Bft) O-NO 69 0.0 UV-I 0.0 W/m 8.0 km/h (2 Bft)
27.02.2024 19:40 8.6 C 77 % 1014.2 hPa 0.0 mm 3.9 km/h (1 Bft) O-NO 65 0.0 UV-I 0.0 W/m 8.0 km/h (2 Bft)
27.02.2024 19:30 8.7 C 76 % 1014.1 hPa 0.0 mm 2.7 km/h (1 Bft) O-NO 77 0.0 UV-I 0.0 W/m 6.4 km/h (2 Bft)
27.02.2024 19:20 8.8 C 76 % 1014.2 hPa 0.0 mm 4.5 km/h (1 Bft) O-NO 77 0.0 UV-I 0.0 W/m 6.4 km/h (2 Bft)
27.02.2024 19:10 8.8 C 76 % 1014.0 hPa 0.0 mm 4.8 km/h (1 Bft) O 82 0.0 UV-I 0.0 W/m 8.0 km/h (2 Bft)
27.02.2024 19:00 8.8 C 76 % 1013.6 hPa 0.0 mm 4.6 km/h (1 Bft) O 82 0.0 UV-I 0.0 W/m 9.7 km/h (2 Bft)
27.02.2024 18:50 8.9 C 76 % 1013.6 hPa 0.0 mm 0.7 km/h (0 Bft) O 89 0.0 UV-I 0.0 W/m 4.8 km/h (1 Bft)
27.02.2024 18:40 8.9 C 75 % 1013.5 hPa 0.0 mm 1.5 km/h (1 Bft) O 89 0.0 UV-I 0.0 W/m 4.8 km/h (1 Bft)
27.02.2024 18:30 9.1 C 75 % 1013.4 hPa 0.0 mm 0.6 km/h (0 Bft) O 90 0.0 UV-I 0.0 W/m 6.4 km/h (2 Bft)
27.02.2024 18:20 9.2 C 74 % 1013.1 hPa 0.0 mm 3.2 km/h (1 Bft) O 90 0.0 UV-I 0.0 W/m 6.4 km/h (2 Bft)
27.02.2024 18:10 9.3 C 74 % 1013.1 hPa 0.0 mm 3.1 km/h (1 Bft) O 91 0.0 UV-I 0.0 W/m 6.4 km/h (2 Bft)
27.02.2024 18:00 9.3 C 73 % 1012.9 hPa 0.0 mm 4.5 km/h (1 Bft) O 88 0.0 UV-I 0.0 W/m 9.7 km/h (2 Bft)
27.02.2024 17:50 9.5 C 73 % 1012.7 hPa 0.0 mm 5.5 km/h (1 Bft) O 94 0.0 UV-I 0.0 W/m 11.3 km/h (2 Bft)
27.02.2024 17:40 9.6 C 72 % 1012.7 hPa 0.0 mm 6.7 km/h (2 Bft) O-SO 122 0.0 UV-I 7.0 W/m 14.5 km/h (3 Bft)
27.02.2024 17:30 9.8 C 71 % 1012.5 hPa 0.0 mm 12.7 km/h (3 Bft) O-NO 78 0.0 UV-I 18.0 W/m 19.3 km/h (3 Bft)
27.02.2024 17:20 9.9 C 71 % 1012.4 hPa 0.0 mm 9.9 km/h (2 Bft) O-SO 116 0.0 UV-I 33.0 W/m 17.7 km/h (3 Bft)
27.02.2024 17:10 10.0 C 70 % 1012.2 hPa 0.0 mm 12.5 km/h (3 Bft) O 89 0.0 UV-I 53.0 W/m 20.9 km/h (4 Bft)
27.02.2024 17:00 10.1 C 70 % 1012.1 hPa 0.0 mm 9.1 km/h (2 Bft) O-NO 65 0.0 UV-I 83.0 W/m 16.1 km/h (3 Bft)
27.02.2024 16:50 10.1 C 69 % 1012.0 hPa 0.0 mm 8.7 km/h (2 Bft) O 83 0.0 UV-I 93.0 W/m 16.1 km/h (3 Bft)
27.02.2024 16:40 10.1 C 69 % 1011.9 hPa 0.0 mm 12.6 km/h (3 Bft) NO 52 0.0 UV-I 105.0 W/m 22.5 km/h (4 Bft)
27.02.2024 16:30 10.1 C 69 % 1011.9 hPa 0.0 mm 12.1 km/h (2 Bft) O-NO 72 0.0 UV-I 105.0 W/m 19.3 km/h (3 Bft)
27.02.2024 16:20 10.2 C 68 % 1011.6 hPa 0.0 mm 16.3 km/h (3 Bft) O 81 0.0 UV-I 134.0 W/m 24.1 km/h (4 Bft)
27.02.2024 16:10 10.2 C 68 % 1011.8 hPa 0.0 mm 15.4 km/h (3 Bft) O 94 0.0 UV-I 93.0 W/m 27.4 km/h (4 Bft)
27.02.2024 16:00 10.6 C 67 % 1011.4 hPa 0.0 mm 16.2 km/h (3 Bft) O-SO 106 0.0 UV-I 125.0 W/m 24.1 km/h (4 Bft)
27.02.2024 15:50 10.7 C 67 % 1011.3 hPa 0.0 mm 15.3 km/h (3 Bft) O-NO 78 0.5 UV-I 225.0 W/m 25.7 km/h (4 Bft)
27.02.2024 15:40 11.1 C 65 % 1011.2 hPa 0.0 mm 10.1 km/h (2 Bft) O-NO 70 0.5 UV-I 197.0 W/m 25.7 km/h (4 Bft)
27.02.2024 15:30 11.1 C 65 % 1011.0 hPa 0.0 mm 9.2 km/h (2 Bft) N 11 0.9 UV-I 497.0 W/m 22.5 km/h (4 Bft)
27.02.2024 15:20 10.6 C 67 % 1010.9 hPa 0.0 mm 13.4 km/h (3 Bft) N 360 0.9 UV-I 489.0 W/m 27.4 km/h (4 Bft)
27.02.2024 15:10 10.2 C 66 % 1011.0 hPa 0.0 mm 10.6 km/h (2 Bft) O 89 0.7 UV-I 220.0 W/m 24.1 km/h (4 Bft)
27.02.2024 15:00 10.2 C 67 % 1010.9 hPa 0.0 mm 13.1 km/h (3 Bft) O 82 0.7 UV-I 237.0 W/m 25.7 km/h (4 Bft)
27.02.2024 14:50 10.3 C 66 % 1010.9 hPa 0.0 mm 13.7 km/h (3 Bft) O-NO 78 0.7 UV-I 174.0 W/m 29.0 km/h (5 Bft)
27.02.2024 14:40 10.4 C 67 % 1010.8 hPa 0.0 mm 14.6 km/h (3 Bft) O-NO 78 0.8 UV-I 225.0 W/m 25.7 km/h (4 Bft)
27.02.2024 14:30 10.8 C 65 % 1010.8 hPa 0.0 mm 13.0 km/h (3 Bft) O 97 1.0 UV-I 304.0 W/m 25.7 km/h (4 Bft)
27.02.2024 14:20 10.7 C 67 % 1010.8 hPa 0.0 mm 13.8 km/h (3 Bft) O-NO 58 1.4 UV-I 554.0 W/m 27.4 km/h (4 Bft)
27.02.2024 14:10 10.8 C 66 % 1010.7 hPa 0.0 mm 14.7 km/h (3 Bft) O 96 1.4 UV-I 585.0 W/m 25.7 km/h (4 Bft)
27.02.2024 14:00 11.1 C 66 % 1010.8 hPa 0.0 mm 15.7 km/h (3 Bft) O 86 1.5 UV-I 582.0 W/m 25.7 km/h (4 Bft)
27.02.2024 13:50 10.8 C 68 % 1010.9 hPa 0.0 mm 12.7 km/h (3 Bft) O 87 1.7 UV-I 721.0 W/m 25.7 km/h (4 Bft)
27.02.2024 13:40 10.2 C 66 % 1010.8 hPa 0.0 mm 18.2 km/h (3 Bft) O 96 1.2 UV-I 364.0 W/m 29.0 km/h (5 Bft)
27.02.2024 13:30 10.5 C 67 % 1010.8 hPa 0.0 mm 12.8 km/h (3 Bft) O-NO 61 1.7 UV-I 689.0 W/m 27.4 km/h (4 Bft)
27.02.2024 13:20 9.9 C 68 % 1010.9 hPa 0.0 mm 14.0 km/h (3 Bft) NO 56 1.3 UV-I 464.0 W/m 25.7 km/h (4 Bft)
27.02.2024 13:10 9.6 C 68 % 1010.8 hPa 0.0 mm 13.9 km/h (3 Bft) O-SO 104 1.0 UV-I 297.0 W/m 24.1 km/h (4 Bft)
27.02.2024 13:00 9.4 C 70 % 1010.6 hPa 0.0 mm 7.4 km/h (2 Bft) O-NO 78 0.9 UV-I 278.0 W/m 17.7 km/h (3 Bft)
27.02.2024 12:50 9.1 C 70 % 1010.6 hPa 0.0 mm 11.7 km/h (2 Bft) O-NO 72 0.7 UV-I 197.0 W/m 22.5 km/h (4 Bft)
27.02.2024 12:40 9.1 C 70 % 1010.4 hPa 0.0 mm 10.4 km/h (2 Bft) O-NO 59 0.6 UV-I 185.0 W/m 19.3 km/h (3 Bft)
27.02.2024 12:30 9.1 C 70 % 1010.8 hPa 0.0 mm 9.3 km/h (2 Bft) NO 42 0.6 UV-I 179.0 W/m 20.9 km/h (4 Bft)
27.02.2024 12:20 9.1 C 70 % 1011.0 hPa 0.0 mm 7.7 km/h (2 Bft) O-NO 71 0.7 UV-I 197.0 W/m 19.3 km/h (3 Bft)
27.02.2024 12:10 9.1 C 71 % 1011.2 hPa 0.0 mm 12.1 km/h (2 Bft) N-NO 32 0.7 UV-I 197.0 W/m 22.5 km/h (4 Bft)
27.02.2024 12:00 9.1 C 71 % 1011.2 hPa 0.0 mm 9.2 km/h (2 Bft) O-NO 65 0.8 UV-I 220.0 W/m 22.5 km/h (4 Bft)
27.02.2024 11:50 9.0 C 71 % 1011.0 hPa 0.0 mm 10.9 km/h (2 Bft) NO 34 0.8 UV-I 218.0 W/m 22.5 km/h (4 Bft)
27.02.2024 11:40 8.9 C 72 % 1011.0 hPa 0.0 mm 5.7 km/h (1 Bft) NO 34 0.7 UV-I 200.0 W/m 16.1 km/h (3 Bft)
27.02.2024 11:30 8.9 C 73 % 1011.0 hPa 0.0 mm 6.2 km/h (2 Bft) NO 44 0.6 UV-I 176.0 W/m 17.7 km/h (3 Bft)
27.02.2024 11:20 8.8 C 73 % 1011.0 hPa 0.0 mm 6.3 km/h (2 Bft) NO 51 0.5 UV-I 148.0 W/m 16.1 km/h (3 Bft)
27.02.2024 11:10 8.7 C 74 % 1010.9 hPa 0.0 mm 5.3 km/h (1 Bft) NO 51 0.5 UV-I 135.0 W/m 14.5 km/h (3 Bft)
27.02.2024 11:00 8.6 C 74 % 1010.9 hPa 0.0 mm 5.6 km/h (1 Bft) O-NO 64 0.5 UV-I 153.0 W/m 16.1 km/h (3 Bft)
27.02.2024 10:50 8.3 C 75 % 1010.6 hPa 0.0 mm 9.9 km/h (2 Bft) NO 49 0.5 UV-I 144.0 W/m 19.3 km/h (3 Bft)
27.02.2024 10:40 8.2 C 75 % 1010.4 hPa 0.0 mm 8.9 km/h (2 Bft) NO 52 0.5 UV-I 146.0 W/m 25.7 km/h (4 Bft)
27.02.2024 10:30 8.1 C 75 % 1010.3 hPa 0.0 mm 6.8 km/h (2 Bft) N 355 0.0 UV-I 151.0 W/m 16.1 km/h (3 Bft)
27.02.2024 10:20 7.9 C 76 % 1010.2 hPa 0.0 mm 5.3 km/h (1 Bft) N-NO 31 0.0 UV-I 132.0 W/m 12.9 km/h (3 Bft)
27.02.2024 10:10 7.8 C 76 % 1010.2 hPa 0.0 mm 9.0 km/h (2 Bft) O 80 0.0 UV-I 100.0 W/m 16.1 km/h (3 Bft)
27.02.2024 10:00 7.7 C 76 % 1010.1 hPa 0.0 mm 11.6 km/h (2 Bft) O 80 0.0 UV-I 116.0 W/m 19.3 km/h (3 Bft)
27.02.2024 09:50 7.6 C 76 % 1010.0 hPa 0.0 mm 11.1 km/h (2 Bft) O-NO 61 0.0 UV-I 109.0 W/m 24.1 km/h (4 Bft)
27.02.2024 09:40 7.7 C 76 % 1010.0 hPa 0.0 mm 10.4 km/h (2 Bft) O-NO 71 0.0 UV-I 91.0 W/m 20.9 km/h (4 Bft)
27.02.2024 09:30 7.6 C 76 % 1010.0 hPa 0.0 mm 4.4 km/h (1 Bft) NO 55 0.0 UV-I 88.0 W/m 11.3 km/h (2 Bft)
27.02.2024 09:20 7.3 C 76 % 1010.2 hPa 0.0 mm 6.1 km/h (2 Bft) O-NO 71 0.0 UV-I 79.0 W/m 16.1 km/h (3 Bft)
27.02.2024 09:10 7.3 C 76 % 1010.4 hPa 0.0 mm 6.6 km/h (2 Bft) O-NO 65 0.0 UV-I 42.0 W/m 14.5 km/h (3 Bft)
27.02.2024 09:00 7.3 C 77 % 1010.4 hPa 0.0 mm 6.0 km/h (2 Bft) O 98 0.0 UV-I 25.0 W/m 14.5 km/h (3 Bft)
_ Min-Zeit 07:30 14:30 09:30 - 18:30 - - - - 18:40
Minimum _ 6.7 C 65 % 1010.0 hPa - 0.6 km/h (0 Bft) - - - - 4.8 km/h (1 Bft)
_ Max-Zeit 14:00 01:20 08:20 09:00 13:40 - - 13:30 13:50 13:40
Maximum _ 11.1 C 82 % 1020.5 hPa 0.0 mm 18.2 km/h
O (3 Bft)
- - 1.7 UV-I 721.0 W/m 29.0 km/h
O-SO (5 Bft)
Durchschnitt _ 8.4 C 76 % 1014.2 hPa #0.0 mm 6.7 km/h (2 Bft) O-NO - 0.0 UV-I 16.2 W/m 15.3 km/h (3 Bft)